Time;durP1;ratioP1;P1;durP2;ratioP2;P2;SDS_P1;SDS_P2;PMS_P1;PMS_P2;Temp;Humidity;BMP_temperature;BMP_pressure;BME280_temperature;BME280_humidity;BME280_pressure;Samples;Min_cycle;Max_cycle;Signal;HPM_P1;HPM_P2
2022/06/29 00:01:55;;;;;;;0.80;0.80;;;23.80;90.20;;;;;;5084170;28;20455;-60
2022/06/29 00:04:27;;;;;;;1.10;0.90;;;23.80;88.90;;;;;;5084044;28;20452;-60
2022/06/29 00:06:58;;;;;;;0.60;0.60;;;24.00;89.00;;;;;;5082667;28;21019;-61
2022/06/29 00:09:29;;;;;;;1.03;0.80;;;24.00;88.50;;;;;;5084239;28;20452;-61
2022/06/29 00:12:00;;;;;;;0.80;0.80;;;24.30;89.50;;;;;;5083761;28;20462;-61
2022/06/29 00:14:31;;;;;;;0.73;0.70;;;24.60;88.40;;;;;;5084669;28;20435;-61
2022/06/29 00:17:01;;;;;;;0.73;0.73;;;24.70;88.50;;;;;;5083735;28;20458;-61
2022/06/29 00:19:34;;;;;;;0.60;0.60;;;24.50;87.10;;;;;;5083798;28;20455;-60
2022/06/29 00:22:06;;;;;;;0.63;0.63;;;24.40;89.30;;;;;;5081874;28;20448;-61
2022/06/29 00:24:36;;;;;;;0.57;0.57;;;24.60;90.40;;;;;;5083617;28;20484;-61
2022/06/29 00:27:08;;;;;;;0.83;0.83;;;24.80;89.70;;;;;;5083091;28;20950;-61
2022/06/29 00:29:39;;;;;;;1.10;1.00;;;24.90;87.70;;;;;;5084014;28;20442;-61
2022/06/29 00:32:10;;;;;;;0.67;0.67;;;25.10;88.00;;;;;;5083300;28;20456;-61
2022/06/29 00:34:42;;;;;;;0.80;0.80;;;24.80;87.90;;;;;;5083561;28;20925;-61
2022/06/29 00:37:13;;;;;;;0.77;0.70;;;24.60;89.50;;;;;;5082139;28;20459;-61
2022/06/29 00:39:44;;;;;;;0.77;0.77;;;24.50;89.40;;;;;;5083403;28;20563;-61
2022/06/29 00:42:16;;;;;;;1.10;0.80;;;24.60;88.70;;;;;;5083136;28;20451;-61
2022/06/29 00:44:46;;;;;;;0.73;0.73;;;24.80;86.40;;;;;;5083645;28;20444;-61
2022/06/29 00:47:18;;;;;;;0.80;0.80;;;24.70;85.30;;;;;;5082640;28;20517;-61
2022/06/29 00:49:50;;;;;;;0.70;0.70;;;24.50;86.70;;;;;;5083253;28;20582;-61
2022/06/29 00:52:25;;;;;;;0.60;0.60;;;24.40;88.60;;;;;;5082172;28;20447;-61
2022/06/29 00:54:57;;;;;;;0.80;0.80;;;24.30;86.60;;;;;;5082821;28;20462;-60
2022/06/29 00:57:29;;;;;;;0.70;0.70;;;23.90;88.80;;;;;;5082771;28;20447;-61
2022/06/29 01:00:01;;;;;;;1.63;0.87;;;23.80;89.00;;;;;;5082978;28;20424;-61
2022/06/29 01:02:33;;;;;;;0.60;0.60;;;23.80;88.60;;;;;;5082798;28;20466;-61
2022/06/29 01:05:07;;;;;;;0.70;0.60;;;23.70;89.00;;;;;;5081803;28;20454;-61
2022/06/29 01:07:38;;;;;;;0.77;0.77;;;23.70;89.60;;;;;;5082371;28;20491;-61
2022/06/29 01:10:10;;;;;;;0.70;0.70;;;23.70;90.10;;;;;;5082289;28;20806;-61
2022/06/29 01:12:40;;;;;;;1.10;1.10;;;23.90;90.00;;;;;;5082808;28;20458;-61
2022/06/29 01:15:12;;;;;;;1.00;0.90;;;24.10;90.20;;;;;;5082792;28;20449;-61
2022/06/29 01:17:46;;;;;;;1.30;1.20;;;24.20;87.80;;;;;;5082352;28;20459;-61
2022/06/29 01:20:18;;;;;;;1.13;1.10;;;24.30;90.00;;;;;;5081642;28;20478;-61
2022/06/29 01:22:52;;;;;;;1.30;1.20;;;24.50;88.40;;;;;;5082684;28;20448;-60
2022/06/29 01:25:23;;;;;;;1.30;1.10;;;24.60;88.70;;;;;;5082417;28;20458;-61
2022/06/29 01:27:54;;;;;;;0.80;0.80;;;24.60;87.40;;;;;;5082090;28;20510;-61
2022/06/29 01:30:24;;;;;;;1.33;1.23;;;24.40;89.00;;;;;;5082550;28;20428;-61
2022/06/29 01:32:55;;;;;;;1.20;1.10;;;24.40;89.10;;;;;;5082583;28;20444;-61
2022/06/29 01:35:26;;;;;;;1.17;1.07;;;24.60;88.90;;;;;;5081415;28;20516;-61
2022/06/29 01:37:59;;;;;;;1.07;1.07;;;24.20;87.90;;;;;;5082420;28;20456;-61
2022/06/29 01:40:30;;;;;;;1.10;1.10;;;24.00;88.60;;;;;;5081941;28;20472;-61
2022/06/29 01:43:01;;;;;;;1.13;1.03;;;23.80;90.10;;;;;;5082540;28;20424;-61
2022/06/29 01:45:32;;;;;;;3.53;1.20;;;23.80;89.60;;;;;;5082532;28;20524;-61
2022/06/29 01:48:02;;;;;;;0.87;0.87;;;23.80;90.30;;;;;;5082013;28;20508;-61
2022/06/29 01:50:33;;;;;;;1.37;1.27;;;23.70;90.00;;;;;;5081090;28;20795;-61
2022/06/29 01:53:06;;;;;;;1.00;1.00;;;23.50;90.60;;;;;;5082225;28;20451;-61
2022/06/29 01:55:37;;;;;;;1.50;1.40;;;23.50;90.60;;;;;;5081708;28;20459;-61
2022/06/29 01:58:07;;;;;;;1.63;1.13;;;23.50;90.70;;;;;;5081949;28;20507;-61
2022/06/29 02:00:38;;;;;;;1.40;1.30;;;23.40;90.50;;;;;;5082265;28;20635;-61
2022/06/29 02:03:10;;;;;;;1.40;1.30;;;23.30;90.60;;;;;;5082125;28;20538;-61
2022/06/29 02:05:41;;;;;;;1.37;1.27;;;23.10;91.00;;;;;;5076525;28;20461;-61
2022/06/29 02:08:14;;;;;;;1.50;1.40;;;23.10;91.50;;;;;;5078180;28;20505;-61
2022/06/29 02:10:44;;;;;;;1.63;1.53;;;23.10;90.90;;;;;;5079498;28;20467;-61
2022/06/29 02:13:15;;;;;;;1.90;1.80;;;23.10;91.60;;;;;;5080375;28;20466;-61
2022/06/29 02:15:46;;;;;;;1.40;1.30;;;23.00;91.80;;;;;;5081920;28;20512;-61
2022/06/29 02:18:17;;;;;;;1.60;1.50;;;22.80;91.80;;;;;;5081694;28;20448;-61
2022/06/29 02:20:48;;;;;;;1.33;1.23;;;22.60;92.10;;;;;;5080830;28;20447;-61
2022/06/29 02:23:21;;;;;;;2.27;1.50;;;22.40;92.30;;;;;;5081851;28;20807;-61
2022/06/29 02:25:51;;;;;;;1.60;1.50;;;22.20;92.60;;;;;;5081433;28;20477;-61
2022/06/29 02:28:22;;;;;;;1.53;1.40;;;22.00;92.90;;;;;;5081571;28;20490;-62
2022/06/29 02:36:28;;;;;;;1.60;1.50;;;21.30;94.20;;;;;;5080747;28;20543;-61
2022/06/29 02:39:00;;;;;;;2.10;2.00;;;21.30;94.30;;;;;;5081518;28;20795;-61
2022/06/29 02:41:31;;;;;;;2.73;1.80;;;21.30;94.40;;;;;;5079314;28;21040;-61
2022/06/29 02:44:02;;;;;;;1.77;1.67;;;21.20;94.80;;;;;;5081531;28;20444;-61
2022/06/29 02:46:33;;;;;;;3.63;2.13;;;21.00;95.00;;;;;;5084982;28;20435;-62
2022/06/29 02:49:03;;;;;;;1.93;1.53;;;21.00;95.20;;;;;;5085748;28;20447;-61
2022/06/29 02:51:34;;;;;;;2.00;1.80;;;20.80;95.40;;;;;;5084111;28;20454;-61
2022/06/29 02:54:07;;;;;;;1.97;1.87;;;20.70;95.80;;;;;;5079811;28;20440;-61
2022/06/29 02:56:38;;;;;;;2.13;1.93;;;20.60;95.70;;;;;;5065809;28;20452;-61
2022/06/29 02:59:08;;;;;;;2.67;1.83;;;20.60;95.80;;;;;;5075132;28;20418;-61
2022/06/29 03:01:39;;;;;;;1.70;1.60;;;20.50;96.40;;;;;;5085556;28;20439;-61
2022/06/29 03:04:11;;;;;;;1.57;1.47;;;20.50;96.20;;;;;;5085618;28;20510;-61
2022/06/29 03:06:42;;;;;;;1.47;1.37;;;20.40;96.60;;;;;;5084150;28;20950;-62
2022/06/29 03:09:14;;;;;;;2.53;2.33;;;20.40;96.80;;;;;;5085047;28;20473;-62
2022/06/29 03:11:46;;;;;;;2.13;1.93;;;20.20;97.30;;;;;;5066972;28;20491;-62
2022/06/29 03:14:17;;;;;;;2.00;1.53;;;20.10;97.20;;;;;;5084686;28;20919;-61
2022/06/29 03:16:48;;;;;;;1.40;1.30;;;20.10;97.70;;;;;;5083264;28;20463;-61
2022/06/29 03:19:19;;;;;;;2.40;1.90;;;20.00;97.70;;;;;;5083755;28;20461;-61
2022/06/29 03:21:50;;;;;;;1.60;1.50;;;20.00;98.00;;;;;;5082246;28;20455;-62
2022/06/29 03:24:23;;;;;;;1.33;1.23;;;19.70;98.70;;;;;;5082468;28;20478;-61
2022/06/29 03:26:54;;;;;;;2.30;1.97;;;19.70;98.60;;;;;;5081293;28;20461;-60
2022/06/29 03:29:25;;;;;;;2.13;1.93;;;19.60;98.70;;;;;;5082596;28;20435;-63
2022/06/29 03:31:55;;;;;;;2.23;2.03;;;19.60;98.90;;;;;;5083285;28;20462;-63
2022/06/29 03:34:26;;;;;;;2.00;1.80;;;19.50;99.00;;;;;;5080689;28;21048;-62
2022/06/29 03:36:57;;;;;;;1.93;1.73;;;19.30;99.40;;;;;;5093598;28;20446;-62
2022/06/29 03:39:29;;;;;;;1.53;1.43;;;19.20;99.90;;;;;;5083646;28;20433;-62
2022/06/29 03:42:00;;;;;;;1.80;1.40;;;19.00;99.90;;;;;;5083870;28;20434;-63
2022/06/29 03:44:31;;;;;;;1.97;1.77;;;18.90;99.90;;;;;;5083753;28;20409;-63
2022/06/29 03:47:02;;;;;;;2.10;1.80;;;18.80;99.90;;;;;;5084166;28;20429;-62
2022/06/29 03:49:39;;;;;;;5.07;1.50;;;18.80;99.90;;;;;;5082733;28;20438;-62
2022/06/29 03:52:10;;;;;;;1.50;1.40;;;18.80;99.90;;;;;;5075473;28;20437;-62
2022/06/29 03:54:43;;;;;;;2.03;1.83;;;18.70;99.90;;;;;;5080590;28;20430;-62
2022/06/29 03:57:13;;;;;;;1.50;1.40;;;18.60;99.90;;;;;;5077659;28;20419;-62
2022/06/29 03:59:44;;;;;;;1.87;1.73;;;18.60;99.90;;;;;;5075106;28;20422;-62
2022/06/29 04:02:15;;;;;;;1.90;1.77;;;18.40;99.90;;;;;;5083897;28;20447;-62
2022/06/29 04:04:46;;;;;;;1.67;1.53;;;18.30;99.90;;;;;;5080267;28;20455;-62
2022/06/29 04:07:17;;;;;;;2.17;1.97;;;18.20;99.90;;;;;;5082325;28;20520;-62
2022/06/29 04:09:49;;;;;;;1.77;1.67;;;18.10;99.90;;;;;;5067381;28;20922;-62
2022/06/29 04:12:20;;;;;;;1.70;1.60;;;18.00;99.90;;;;;;5082620;28;20818;-62
2022/06/29 04:14:50;;;;;;;1.60;1.50;;;17.90;99.90;;;;;;5083132;28;20883;-63
2022/06/29 04:17:21;;;;;;;1.73;1.60;;;17.80;99.90;;;;;;5082549;28;20430;-63
2022/06/29 04:19:52;;;;;;;2.20;1.60;;;17.80;99.90;;;;;;5082876;28;20471;-61
2022/06/29 04:22:23;;;;;;;1.60;1.50;;;17.80;99.90;;;;;;5081910;28;20832;-61
2022/06/29 04:24:56;;;;;;;2.27;2.03;;;17.80;99.90;;;;;;5079054;28;20776;-62
2022/06/29 04:27:26;;;;;;;1.80;1.70;;;17.70;99.90;;;;;;5076977;28;20877;-62
2022/06/29 04:29:57;;;;;;;2.03;1.90;;;17.70;99.90;;;;;;5076465;28;20429;-61
2022/06/29 04:32:28;;;;;;;2.00;1.80;;;17.70;99.90;;;;;;5076909;28;20550;-62
2022/06/29 04:34:59;;;;;;;1.70;1.60;;;17.60;99.90;;;;;;5080390;28;20442;-61
2022/06/29 04:37:30;;;;;;;3.00;1.73;;;17.60;99.90;;;;;;5082562;28;20589;-61
2022/06/29 04:40:03;;;;;;;1.70;1.60;;;17.40;99.90;;;;;;5081257;28;20542;-61
2022/06/29 04:42:33;;;;;;;1.30;1.20;;;17.30;99.90;;;;;;5073143;28;20426;-62
2022/06/29 04:45:05;;;;;;;2.07;1.77;;;17.30;99.90;;;;;;5081863;28;20434;-62
2022/06/29 04:47:35;;;;;;;2.03;1.93;;;17.30;99.90;;;;;;5082277;28;20429;-62
2022/06/29 04:50:07;;;;;;;2.20;1.93;;;17.30;99.90;;;;;;5078473;28;20448;-62
2022/06/29 04:52:38;;;;;;;1.77;1.67;;;17.20;99.90;;;;;;5081874;28;20470;-63
2022/06/29 04:55:11;;;;;;;2.43;1.80;;;17.20;99.90;;;;;;5079571;28;20459;-63
2022/06/29 04:57:42;;;;;;;1.93;1.83;;;17.10;99.90;;;;;;5082408;28;20956;-62
2022/06/29 05:00:14;;;;;;;2.10;1.90;;;17.00;99.90;;;;;;5081465;28;20459;-62
2022/06/29 05:02:45;;;;;;;1.50;1.40;;;17.00;99.90;;;;;;5082476;28;20520;-62
2022/06/29 05:05:16;;;;;;;2.10;1.90;;;16.90;99.90;;;;;;5080203;28;20446;-62
2022/06/29 05:07:47;;;;;;;1.87;1.73;;;16.90;99.90;;;;;;5076427;28;20427;-62
2022/06/29 05:10:19;;;;;;;2.47;2.17;;;16.80;99.90;;;;;;5079955;28;20448;-62
2022/06/29 05:12:50;;;;;;;2.73;1.90;;;16.80;99.90;;;;;;5081405;28;20553;-62
2022/06/29 05:15:21;;;;;;;2.20;2.00;;;16.70;99.90;;;;;;5081758;28;20434;-62
2022/06/29 05:17:52;;;;;;;2.27;1.90;;;16.70;99.90;;;;;;5082690;28;20426;-62
2022/06/29 05:20:22;;;;;;;2.50;2.20;;;16.70;99.90;;;;;;5080773;28;20463;-62
2022/06/29 05:22:53;;;;;;;1.97;1.80;;;16.70;99.90;;;;;;5081951;28;20438;-67
2022/06/29 05:25:27;;;;;;;3.20;1.70;;;16.70;99.90;;;;;;5080175;28;20463;-62
2022/06/29 05:27:58;;;;;;;2.40;2.20;;;16.60;99.90;;;;;;5082074;28;20455;-63
2022/06/29 05:30:28;;;;;;;3.90;1.70;;;16.60;99.90;;;;;;5081451;28;20474;-62
2022/06/29 05:32:59;;;;;;;1.60;1.50;;;16.60;99.90;;;;;;5081258;28;20438;-62
2022/06/29 05:35:33;;;;;;;1.87;1.70;;;16.60;99.90;;;;;;5079906;28;20490;-62
2022/06/29 05:38:04;;;;;;;1.87;1.73;;;16.50;99.90;;;;;;5080906;28;20469;-62
2022/06/29 05:40:37;;;;;;;2.40;2.20;;;16.50;99.90;;;;;;5081572;28;20447;-62
2022/06/29 05:43:08;;;;;;;1.70;1.50;;;16.50;99.90;;;;;;5080405;28;20454;-63
2022/06/29 05:45:38;;;;;;;2.70;2.00;;;16.50;99.90;;;;;;5081192;28;20429;-65
2022/06/29 05:48:10;;;;;;;1.87;1.73;;;16.60;99.90;;;;;;5079609;28;20544;-63
2022/06/29 05:50:41;;;;;;;4.33;2.00;;;16.60;99.90;;;;;;5080189;28;20471;-63
2022/06/29 05:53:12;;;;;;;2.13;2.00;;;16.60;99.90;;;;;;5079369;28;20475;-62
2022/06/29 05:55:45;;;;;;;2.80;2.37;;;16.60;99.90;;;;;;5080997;28;20460;-63
2022/06/29 05:58:19;;;;;;;2.10;1.90;;;16.60;99.90;;;;;;5078594;28;20465;-63
2022/06/29 06:00:50;;;;;;;1.67;1.57;;;16.60;99.90;;;;;;5080757;28;20448;-62
2022/06/29 06:03:20;;;;;;;1.80;1.63;;;16.60;99.90;;;;;;5078115;28;20447;-63
2022/06/29 06:05:52;;;;;;;2.43;2.10;;;16.70;99.90;;;;;;5075462;28;20479;-63
2022/06/29 06:08:23;;;;;;;1.70;1.60;;;16.70;99.90;;;;;;5075889;28;20459;-62
2022/06/29 06:10:55;;;;;;;2.07;1.97;;;16.80;99.90;;;;;;5078695;28;20512;-63
2022/06/29 06:13:26;;;;;;;2.00;1.67;;;16.90;99.90;;;;;;5080626;28;20434;-62
2022/06/29 06:15:57;;;;;;;2.03;1.60;;;16.90;99.90;;;;;;5079574;28;20844;-63
2022/06/29 06:18:48;;;;;;;3.10;1.87;;;17.00;99.90;;;;;;5069175;28;20445;-63
2022/06/29 06:21:18;;;;;;;2.20;2.00;;;17.00;99.90;;;;;;5081877;28;20428;-62
2022/06/29 06:23:49;;;;;;;2.30;2.20;;;17.00;99.90;;;;;;5078494;28;20487;-62
2022/06/29 06:26:23;;;;;;;2.30;2.10;;;17.10;99.90;;;;;;5084825;28;20457;-63
2022/06/29 06:28:53;;;;;;;2.00;1.90;;;17.10;99.90;;;;;;5085812;28;20433;-63
2022/06/29 06:31:26;;;;;;;2.30;2.10;;;17.10;99.90;;;;;;5084979;28;20483;-63
2022/06/29 06:33:57;;;;;;;1.87;1.60;;;17.20;99.90;;;;;;5081435;28;20438;-63
2022/06/29 06:36:27;;;;;;;2.30;2.10;;;17.20;99.90;;;;;;5084048;28;20463;-63
2022/06/29 06:38:58;;;;;;;2.30;2.10;;;17.20;99.90;;;;;;5084324;28;20442;-62
2022/06/29 06:41:29;;;;;;;2.60;2.40;;;17.30;99.90;;;;;;5084252;28;20553;-63
2022/06/29 06:44:01;;;;;;;3.00;2.37;;;17.30;99.90;;;;;;5085736;28;20462;-63
2022/06/29 06:46:34;;;;;;;1.87;1.77;;;17.10;99.90;;;;;;5085130;28;20428;-63
2022/06/29 06:49:05;;;;;;;1.57;1.47;;;17.20;99.90;;;;;;5083953;28;20486;-62
2022/06/29 06:51:36;;;;;;;3.20;2.53;;;17.10;99.90;;;;;;5080704;28;20466;-62
2022/06/29 06:54:07;;;;;;;4.33;1.90;;;17.10;99.90;;;;;;5083524;28;20509;-63
2022/06/29 06:56:39;;;;;;;2.37;2.17;;;17.00;99.90;;;;;;5083166;28;20459;-63
2022/06/29 06:59:11;;;;;;;2.47;2.27;;;16.90;99.90;;;;;;5083837;28;20463;-62
2022/06/29 07:01:42;;;;;;;2.60;2.40;;;16.90;99.90;;;;;;5085075;28;20527;-62
2022/06/29 07:04:18;;;;;;;2.10;1.90;;;16.80;99.90;;;;;;5082991;28;20467;-62
2022/06/29 07:06:49;;;;;;;2.47;2.27;;;16.60;99.90;;;;;;5077810;28;20459;-63
2022/06/29 07:09:20;;;;;;;2.40;2.20;;;16.50;99.90;;;;;;5084361;28;20505;-62
2022/06/29 07:11:52;;;;;;;1.93;1.83;;;16.50;99.90;;;;;;5083809;28;20449;-62
2022/06/29 07:14:23;;;;;;;3.60;2.90;;;16.40;99.90;;;;;;5077002;28;20900;-62
2022/06/29 07:16:54;;;;;;;2.70;1.80;;;16.40;99.90;;;;;;5083822;28;20565;-62
2022/06/29 07:19:24;;;;;;;2.27;2.07;;;16.40;99.90;;;;;;5083537;28;20466;-62
2022/06/29 07:21:55;;;;;;;2.17;2.03;;;16.40;99.90;;;;;;5082485;28;20450;-62
2022/06/29 07:24:26;;;;;;;2.50;2.30;;;16.40;99.90;;;;;;5081483;28;20498;-63
2022/06/29 07:26:58;;;;;;;2.60;2.40;;;16.40;99.90;;;;;;5080620;28;20447;-62
2022/06/29 07:29:29;;;;;;;2.60;1.90;;;16.40;99.90;;;;;;5083826;28;20483;-62
2022/06/29 07:32:00;;;;;;;2.43;2.23;;;16.40;99.90;;;;;;5083493;28;20458;-62
2022/06/29 07:34:31;;;;;;;2.20;2.00;;;16.50;99.90;;;;;;5083810;28;20486;-62
2022/06/29 07:37:01;;;;;;;2.13;1.97;;;16.40;99.90;;;;;;5082983;28;20444;-62
2022/06/29 07:39:32;;;;;;;2.47;2.30;;;16.50;99.90;;;;;;5082931;28;20433;-62
2022/06/29 07:42:21;;;;;;;2.73;2.50;;;16.60;99.90;;;;;;5083666;28;20509;-62
2022/06/29 07:44:51;;;;;;;5.63;2.30;;;16.60;99.90;;;;;;5084547;28;20805;-62
2022/06/29 07:47:22;;;;;;;2.40;2.10;;;16.60;99.90;;;;;;5083972;28;20821;-62
2022/06/29 07:49:53;;;;;;;2.33;2.13;;;16.70;99.90;;;;;;5082630;28;20553;-62
2022/06/29 07:52:24;;;;;;;2.60;2.40;;;16.70;99.90;;;;;;5083354;28;20459;-62
2022/06/29 07:54:55;;;;;;;2.23;2.03;;;16.70;99.90;;;;;;5082149;28;20471;-62
2022/06/29 07:57:27;;;;;;;2.80;2.57;;;16.70;99.90;;;;;;5081848;28;20441;-63
2022/06/29 07:59:58;;;;;;;2.13;1.93;;;16.60;99.90;;;;;;5082748;28;20744;-62
2022/06/29 08:02:29;;;;;;;3.37;2.00;;;16.70;99.90;;;;;;5082556;28;20478;-62
2022/06/29 08:05:01;;;;;;;3.67;2.23;;;16.70;99.90;;;;;;5080905;28;20464;-62
2022/06/29 08:07:34;;;;;;;2.30;2.10;;;16.70;99.90;;;;;;5082304;28;20463;-62
2022/06/29 08:10:07;;;;;;;2.73;2.30;;;16.70;99.90;;;;;;5082789;28;20527;-62
2022/06/29 08:12:39;;;;;;;2.90;2.20;;;16.70;99.90;;;;;;5082978;28;20511;-62
2022/06/29 08:15:11;;;;;;;2.00;1.90;;;16.60;99.90;;;;;;5080922;28;20452;-62
2022/06/29 08:17:42;;;;;;;2.30;2.00;;;16.70;99.90;;;;;;5083548;28;20450;-62
2022/06/29 08:20:14;;;;;;;1.93;1.80;;;16.70;99.90;;;;;;5081335;28;20459;-63
2022/06/29 08:22:45;;;;;;;1.90;1.77;;;16.70;99.90;;;;;;5081434;28;20463;-62
2022/06/29 08:25:15;;;;;;;2.30;2.10;;;16.70;99.90;;;;;;5081939;28;20467;-62
2022/06/29 08:27:53;;;;;;;2.20;2.10;;;16.80;99.90;;;;;;5082769;28;20471;-63
2022/06/29 08:30:24;;;;;;;3.17;1.90;;;16.80;99.90;;;;;;5083259;28;20563;-62
2022/06/29 08:32:55;;;;;;;2.30;1.93;;;16.70;99.90;;;;;;5082322;28;20459;-62
2022/06/29 08:35:27;;;;;;;1.70;1.60;;;16.70;99.90;;;;;;5081105;28;20438;-62
2022/06/29 08:37:57;;;;;;;3.50;2.20;;;16.70;99.90;;;;;;5082249;28;20444;-62
2022/06/29 08:40:33;;;;;;;2.23;2.03;;;16.70;99.90;;;;;;5082722;28;20471;-62
2022/06/29 08:43:06;;;;;;;2.07;1.97;;;16.70;99.90;;;;;;5081604;28;21193;-63
2022/06/29 08:45:38;;;;;;;2.80;2.00;;;16.70;99.90;;;;;;5082754;28;20457;-62
2022/06/29 08:48:09;;;;;;;2.43;2.23;;;16.70;99.90;;;;;;5082777;28;20450;-62
2022/06/29 08:50:41;;;;;;;2.10;1.90;;;16.60;99.90;;;;;;5081234;28;20577;-62
2022/06/29 08:53:16;;;;;;;2.07;1.90;;;16.60;99.90;;;;;;5081359;28;20555;-62
2022/06/29 08:55:48;;;;;;;2.30;2.10;;;16.70;99.90;;;;;;5077316;28;20451;-63
2022/06/29 08:58:23;;;;;;;2.33;1.90;;;16.70;99.90;;;;;;5081618;28;20426;-63
2022/06/29 09:00:54;;;;;;;2.60;2.40;;;16.70;99.90;;;;;;5082660;28;20451;-62
2022/06/29 09:03:25;;;;;;;2.27;2.07;;;16.70;99.90;;;;;;5082015;28;20422;-62
2022/06/29 09:05:57;;;;;;;2.50;2.20;;;16.70;99.90;;;;;;5081039;28;20438;-62
2022/06/29 09:08:28;;;;;;;2.40;2.13;;;16.70;99.90;;;;;;5061719;28;20495;-62
2022/06/29 09:10:58;;;;;;;2.60;2.40;;;16.70;99.90;;;;;;5081961;28;20487;-62
2022/06/29 09:13:31;;;;;;;2.30;2.10;;;16.70;99.90;;;;;;5081661;28;20540;-62
2022/06/29 09:16:02;;;;;;;2.47;2.27;;;16.80;99.90;;;;;;5081546;28;20457;-62
2022/06/29 09:18:34;;;;;;;1.77;1.67;;;16.70;99.90;;;;;;5081522;28;20456;-62
2022/06/29 09:21:07;;;;;;;1.80;1.70;;;16.70;99.90;;;;;;5080545;28;20796;-62
2022/06/29 09:23:38;;;;;;;2.13;1.93;;;16.70;99.90;;;;;;5082174;28;20487;-62
2022/06/29 09:26:08;;;;;;;2.30;2.10;;;16.70;99.90;;;;;;5080736;28;20463;-62
2022/06/29 09:28:41;;;;;;;3.07;1.67;;;16.70;99.90;;;;;;5080256;28;20464;-62
2022/06/29 09:31:11;;;;;;;1.67;1.57;;;16.70;99.90;;;;;;5082186;28;20489;-62
2022/06/29 09:33:42;;;;;;;2.33;2.13;;;16.70;99.90;;;;;;5081890;28;20538;-63
2022/06/29 09:36:16;;;;;;;1.90;1.80;;;16.60;99.90;;;;;;5080421;28;20588;-62
2022/06/29 09:38:47;;;;;;;1.90;1.60;;;16.60;99.90;;;;;;5081937;28;20445;-62
2022/06/29 09:41:18;;;;;;;2.33;2.13;;;16.60;99.90;;;;;;5081079;28;20469;-63
2022/06/29 09:43:50;;;;;;;2.27;2.07;;;16.70;99.90;;;;;;5080727;28;20441;-63
2022/06/29 09:46:22;;;;;;;2.30;2.10;;;16.70;99.90;;;;;;5081755;28;20464;-62
2022/06/29 09:48:53;;;;;;;2.10;1.90;;;16.60;99.90;;;;;;5078400;28;20462;-62
2022/06/29 09:51:33;;;;;;;1.70;1.60;;;16.60;99.90;;;;;;5080276;28;20487;-62
2022/06/29 09:54:06;;;;;;;1.70;1.60;;;16.50;99.90;;;;;;5076236;28;20469;-63
2022/06/29 09:56:43;;;;;;;2.30;1.77;;;16.50;99.90;;;;;;5079979;28;20466;-62
2022/06/29 09:59:23;;;;;;;2.10;1.73;;;16.50;99.90;;;;;;5077082;28;20500;-63
2022/06/29 10:04:41;;;;;;;1.80;1.70;;;16.60;99.90;;;;;;5079236;28;20483;-62
2022/06/29 10:07:13;;;;;;;1.70;1.60;;;16.60;99.90;;;;;;5080420;28;20430;-62
2022/06/29 10:09:45;;;;;;;2.00;1.70;;;16.60;99.90;;;;;;5076244;28;20460;-62
2022/06/29 10:15:28;;;;;;;2.70;2.00;;;16.60;99.90;;;;;;5080203;28;20463;-62
2022/06/29 10:18:09;;;;;;;3.30;2.57;;;16.60;99.90;;;;;;5080683;28;20459;-63
2022/06/29 10:20:47;;;;;;;1.90;1.80;;;16.60;99.90;;;;;;5080421;28;20529;-63
2022/06/29 10:23:51;;;;;;;2.17;1.77;;;16.60;99.90;;;;;;5080743;28;20483;-63
2022/06/29 10:26:43;;;;;;;1.70;1.60;;;16.60;99.90;;;;;;4991056;28;20470;-63
2022/06/29 10:29:38;;;;;;;3.10;2.50;;;16.60;99.90;;;;;;4999289;28;21033;-63
2022/06/29 10:32:17;;;;;;;2.50;2.30;;;16.60;99.90;;;;;;4998630;28;20900;-62
2022/06/29 10:35:07;;;;;;;2.47;2.27;;;16.60;99.90;;;;;;4997919;28;20884;-62
2022/06/29 10:37:50;;;;;;;2.70;2.50;;;16.60;99.90;;;;;;4999420;28;20925;-62
2022/06/29 10:40:24;;;;;;;1.77;1.67;;;16.60;99.90;;;;;;4998344;28;20468;-62
2022/06/29 10:43:09;;;;;;;2.40;2.20;;;16.60;99.90;;;;;;4998542;28;20551;-63
2022/06/29 10:45:47;;;;;;;2.20;2.00;;;16.60;99.90;;;;;;4997706;28;20467;-63
2022/06/29 10:48:24;;;;;;;2.40;2.20;;;16.60;99.90;;;;;;4999236;28;20513;-62
2022/06/29 10:50:55;;;;;;;2.07;1.97;;;16.50;99.90;;;;;;4993975;28;20954;-63
2022/06/29 10:53:26;;;;;;;2.00;1.90;;;16.60;99.90;;;;;;4999036;28;20481;-62
2022/06/29 10:55:58;;;;;;;2.40;2.07;;;16.60;99.90;;;;;;4997643;28;20550;-62
2022/06/29 10:58:29;;;;;;;2.47;2.27;;;16.50;99.90;;;;;;4997498;28;20458;-62
2022/06/29 11:01:00;;;;;;;2.57;2.20;;;16.60;99.90;;;;;;5053563;28;20489;-63
2022/06/29 11:03:32;;;;;;;2.40;2.20;;;16.70;99.90;;;;;;5080631;28;20494;-62
2022/06/29 11:12:06;;;;;;;2.50;2.33;;;16.50;99.90;;;;;;5021548;28;20576;-62
2022/06/29 11:17:47;;;;;;;2.47;2.20;;;16.50;99.90;;;;;;5022416;28;20465;-63
2022/06/29 11:20:22;;;;;;;1.90;1.80;;;16.60;99.90;;;;;;5020368;28;20470;-62
2022/06/29 11:22:55;;;;;;;2.30;2.20;;;16.60;99.90;;;;;;5021734;28;20467;-64
2022/06/29 11:25:26;;;;;;;2.27;2.07;;;16.50;99.90;;;;;;5022018;28;20440;-62
2022/06/29 11:27:57;;;;;;;2.67;2.47;;;16.60;99.90;;;;;;5021324;28;20476;-62
2022/06/29 11:30:28;;;;;;;2.57;2.33;;;16.60;99.90;;;;;;5020881;28;20429;-63
2022/06/29 11:32:59;;;;;;;2.57;2.23;;;16.60;99.90;;;;;;5022551;28;20507;-63
2022/06/29 11:35:32;;;;;;;2.10;2.00;;;16.60;99.90;;;;;;5020282;28;20437;-63
2022/06/29 11:38:05;;;;;;;2.40;2.20;;;16.50;99.90;;;;;;5020365;28;20581;-63
2022/06/29 11:40:41;;;;;;;2.30;2.10;;;16.40;99.90;;;;;;5020335;28;20489;-63
2022/06/29 11:43:13;;;;;;;2.70;2.50;;;16.50;99.90;;;;;;5050390;28;20505;-62
2022/06/29 11:45:46;;;;;;;2.27;2.10;;;16.50;99.90;;;;;;5083287;28;20609;-63
2022/06/29 11:48:18;;;;;;;2.87;2.47;;;16.50;99.90;;;;;;5083645;28;20456;-62
2022/06/29 11:50:55;;;;;;;2.63;2.43;;;16.50;99.90;;;;;;5077636;28;20459;-62
2022/06/29 11:53:43;;;;;;;3.07;2.30;;;16.50;99.90;;;;;;5079153;28;20881;-62
2022/06/29 11:56:15;;;;;;;3.20;2.60;;;16.50;99.90;;;;;;5082068;28;20482;-62
2022/06/29 11:58:50;;;;;;;3.37;2.33;;;16.50;99.90;;;;;;5082678;28;20467;-62
2022/06/29 12:01:21;;;;;;;2.43;2.23;;;16.50;99.90;;;;;;5080279;28;20440;-63
2022/06/29 12:03:53;;;;;;;2.20;2.10;;;16.50;99.90;;;;;;5082871;28;20455;-63
2022/06/29 12:06:27;;;;;;;2.73;2.53;;;16.50;99.90;;;;;;5081846;28;20464;-62
2022/06/29 12:08:58;;;;;;;2.60;2.40;;;16.50;99.90;;;;;;5083355;28;20434;-63
2022/06/29 12:11:29;;;;;;;2.50;2.30;;;16.50;99.90;;;;;;5082610;28;20456;-62
2022/06/29 12:14:00;;;;;;;4.00;2.20;;;16.50;99.90;;;;;;5076715;28;20471;-63
2022/06/29 12:16:31;;;;;;;2.30;2.10;;;16.50;99.90;;;;;;5080886;28;20483;-63
2022/06/29 12:19:02;;;;;;;2.00;1.90;;;16.50;99.90;;;;;;5080440;28;20463;-63
2022/06/29 12:21:35;;;;;;;2.40;2.20;;;16.50;99.90;;;;;;5082146;28;20463;-62
2022/06/29 12:24:06;;;;;;;2.00;1.90;;;16.40;99.90;;;;;;5078871;28;20475;-62
2022/06/29 12:26:36;;;;;;;3.80;2.80;;;16.50;99.90;;;;;;5080868;28;20796;-62
2022/06/29 12:29:07;;;;;;;2.50;2.03;;;16.40;99.90;;;;;;5082795;28;20464;-63
2022/06/29 12:31:40;;;;;;;2.23;2.03;;;16.40;99.90;;;;;;5081935;28;20462;-61
2022/06/29 12:34:11;;;;;;;2.17;2.07;;;16.40;99.90;;;;;;5082525;28;20586;-62
2022/06/29 12:36:59;;;;;;;2.17;1.93;;;16.40;99.90;;;;;;5080610;28;20862;-61
2022/06/29 12:39:30;;;;;;;1.80;1.70;;;16.50;99.90;;;;;;5082703;28;20438;-61
2022/06/29 12:42:02;;;;;;;1.90;1.80;;;16.50;99.90;;;;;;5081503;28;20459;-62
2022/06/29 12:44:33;;;;;;;1.93;1.83;;;16.50;99.90;;;;;;5068322;28;20558;-62
2022/06/29 12:47:04;;;;;;;2.00;1.90;;;16.50;99.90;;;;;;5080876;28;20577;-61
2022/06/29 12:49:34;;;;;;;1.90;1.73;;;16.50;99.90;;;;;;5082390;28;20439;-62
2022/06/29 12:52:07;;;;;;;2.30;1.97;;;16.60;99.90;;;;;;5080709;28;20474;-61
2022/06/29 12:54:39;;;;;;;2.80;2.60;;;16.60;99.90;;;;;;5076920;28;20537;-61
2022/06/29 12:57:09;;;;;;;1.97;1.80;;;16.50;99.90;;;;;;5081658;28;20465;-61
2022/06/29 12:59:40;;;;;;;2.50;2.30;;;16.40;99.90;;;;;;5081192;28;20538;-61
2022/06/29 13:02:12;;;;;;;2.70;2.13;;;16.50;99.90;;;;;;5081259;28;20502;-61
2022/06/29 13:04:42;;;;;;;2.40;2.20;;;16.50;99.90;;;;;;5073497;28;20455;-61
2022/06/29 13:07:15;;;;;;;1.93;1.83;;;16.50;99.90;;;;;;5078093;28;20464;-61
2022/06/29 13:09:47;;;;;;;2.00;1.77;;;16.50;99.90;;;;;;5082644;28;20430;-61
2022/06/29 13:12:18;;;;;;;2.20;2.10;;;16.50;99.90;;;;;;5080914;28;20456;-61
2022/06/29 13:14:49;;;;;;;2.20;2.03;;;16.50;99.90;;;;;;5081649;28;20567;-61
2022/06/29 13:17:20;;;;;;;1.80;1.70;;;16.50;99.90;;;;;;5080898;28;20943;-61
2022/06/29 13:19:51;;;;;;;2.33;2.20;;;16.60;99.90;;;;;;5081690;28;20760;-61
2022/06/29 13:22:23;;;;;;;2.23;2.07;;;16.60;99.90;;;;;;5080651;28;20436;-61
2022/06/29 13:24:54;;;;;;;2.20;2.00;;;16.50;99.90;;;;;;5081340;28;20454;-61
2022/06/29 13:27:25;;;;;;;1.90;1.80;;;16.60;99.90;;;;;;5080615;28;20456;-61
2022/06/29 13:29:56;;;;;;;2.00;1.83;;;16.60;99.90;;;;;;5080907;28;20466;-61
2022/06/29 13:32:27;;;;;;;2.27;2.17;;;16.70;99.90;;;;;;5081759;28;20530;-61
2022/06/29 13:34:58;;;;;;;2.03;1.90;;;16.70;99.90;;;;;;5080667;28;20438;-61